createdAt,value
2022-10-16T00:00:35.768Z,1.43
2022-10-16T00:06:37.934Z,1.63
2022-10-16T00:20:20.458Z,1.60
2022-10-16T00:26:23.413Z,1.80
2022-10-16T00:32:25.680Z,2.10
2022-10-16T00:38:27.915Z,1.90
2022-10-16T00:44:58.424Z,1.90
2022-10-16T00:51:00.836Z,1.70
2022-10-16T00:57:06.876Z,1.67
2022-10-16T01:03:32.175Z,1.83
2022-10-16T01:10:22.952Z,3.00
2022-10-16T01:16:50.188Z,2.03
2022-10-16T01:23:26.187Z,2.10
2022-10-16T01:29:59.728Z,1.77
2022-10-16T01:36:29.023Z,1.87
2022-10-16T01:42:40.419Z,2.30
2022-10-16T01:48:42.745Z,1.87
2022-10-16T01:54:49.741Z,2.10
2022-10-16T02:00:53.215Z,1.63
2022-10-16T02:06:56.169Z,2.00
2022-10-16T02:13:06.956Z,2.00
2022-10-16T02:19:09.291Z,1.80
2022-10-16T02:25:23.029Z,1.80
2022-10-16T02:31:30.317Z,1.70
2022-10-16T02:37:33.313Z,1.50
2022-10-16T02:43:35.487Z,1.80
2022-10-16T02:49:37.411Z,1.70
2022-10-16T02:55:39.309Z,1.80
2022-10-16T03:01:41.326Z,1.67
2022-10-16T03:07:43.422Z,1.90
2022-10-16T03:13:45.328Z,1.70
2022-10-16T03:19:47.244Z,2.37
2022-10-16T03:25:49.177Z,1.50
2022-10-16T03:31:51.076Z,1.93
2022-10-16T03:37:53.306Z,2.10
2022-10-16T03:43:55.176Z,1.60
2022-10-16T03:56:06.794Z,1.70
2022-10-16T04:02:08.690Z,1.67
2022-10-16T04:08:10.837Z,1.70
2022-10-16T04:14:13.039Z,1.67
2022-10-16T04:20:15.474Z,1.80
2022-10-16T04:26:17.480Z,2.30
2022-10-16T04:32:54.375Z,1.80
2022-10-16T04:38:56.701Z,2.10
2022-10-16T04:44:58.566Z,1.77
2022-10-16T04:51:00.871Z,1.83
2022-10-16T04:57:03.168Z,1.83
2022-10-16T05:03:08.526Z,1.70
2022-10-16T05:09:11.210Z,1.47
2022-10-16T05:15:26.645Z,1.40
2022-10-16T05:21:28.751Z,1.73
2022-10-16T05:27:30.884Z,1.90
2022-10-16T05:33:32.825Z,2.07
2022-10-16T05:39:34.851Z,1.80
2022-10-16T05:45:39.693Z,1.37
2022-10-16T05:51:42.925Z,1.77
2022-10-16T05:57:45.957Z,1.53
2022-10-16T06:03:48.168Z,1.50
2022-10-16T06:10:02.439Z,1.37
2022-10-16T06:16:05.930Z,1.67
2022-10-16T06:22:08.325Z,1.47
2022-10-16T06:28:10.469Z,1.50
2022-10-16T06:34:13.159Z,1.70
2022-10-16T06:40:16.330Z,2.00
2022-10-16T06:46:23.083Z,1.67
2022-10-16T06:52:26.067Z,1.70
2022-10-16T06:58:28.433Z,1.60
2022-10-16T07:04:30.498Z,1.20
2022-10-16T07:10:33.830Z,1.80
2022-10-16T07:16:35.731Z,1.40
2022-10-16T07:22:43.658Z,1.30
2022-10-16T07:28:46.081Z,2.10
2022-10-16T07:34:48.206Z,1.70
2022-10-16T07:41:03.467Z,1.50
2022-10-16T07:47:05.366Z,1.57
2022-10-16T07:53:07.675Z,1.70
2022-10-16T07:59:11.491Z,1.97
2022-10-16T08:05:13.950Z,1.70
2022-10-16T08:11:16.296Z,2.93
2022-10-16T08:17:21.054Z,1.57
2022-10-16T08:23:22.961Z,1.40
2022-10-16T08:29:24.924Z,1.83
2022-10-16T08:35:26.857Z,1.47
2022-10-16T08:41:56.438Z,1.20
2022-10-16T08:48:10.366Z,1.30
2022-10-16T08:54:41.598Z,1.20
2022-10-16T09:00:51.413Z,1.43
2022-10-16T09:07:39.949Z,1.03
2022-10-16T09:13:49.412Z,1.30
2022-10-16T09:20:43.708Z,1.83
2022-10-16T09:26:47.481Z,1.20
2022-10-16T09:32:54.023Z,1.30
2022-10-16T09:39:15.685Z,1.20
2022-10-16T09:45:25.404Z,1.10
2022-10-16T09:51:37.572Z,0.90
2022-10-16T09:57:54.091Z,1.20
2022-10-16T10:04:03.491Z,1.00
2022-10-16T10:10:07.372Z,1.00
2022-10-16T10:17:09.645Z,1.00
2022-10-16T10:24:11.054Z,0.90
2022-10-16T10:30:29.005Z,0.80
2022-10-16T10:36:43.045Z,0.87
2022-10-16T10:43:25.607Z,0.90
2022-10-16T10:49:49.000Z,1.10
2022-10-16T10:56:30.555Z,1.23
2022-10-16T11:02:43.056Z,0.93
2022-10-16T11:09:01.406Z,0.93
2022-10-16T11:15:27.767Z,0.80
2022-10-16T11:21:40.674Z,0.83
2022-10-16T11:28:18.368Z,1.27
2022-10-16T11:34:37.927Z,0.90
2022-10-16T11:41:05.491Z,0.80
2022-10-16T11:47:58.679Z,0.90
2022-10-16T11:54:25.833Z,0.90
2022-10-16T12:00:51.860Z,0.90
2022-10-16T12:07:13.095Z,0.90
2022-10-16T12:13:37.682Z,1.00
2022-10-16T12:19:39.625Z,0.80
2022-10-16T12:25:47.529Z,0.90
2022-10-16T12:31:57.528Z,1.13
2022-10-16T12:38:22.426Z,0.90
2022-10-16T12:44:25.655Z,0.90
2022-10-16T12:50:34.533Z,1.10
2022-10-16T12:57:07.416Z,0.90
2022-10-16T13:03:44.881Z,0.90
2022-10-16T13:10:08.406Z,0.90
2022-10-16T13:16:27.753Z,1.00
2022-10-16T13:22:57.585Z,1.30
2022-10-16T13:29:02.413Z,0.80
2022-10-16T13:35:18.916Z,0.80
2022-10-16T13:41:22.221Z,0.80
2022-10-16T13:47:31.028Z,0.80
2022-10-16T13:53:35.840Z,0.90
2022-10-16T13:59:39.994Z,0.80
2022-10-16T14:06:07.645Z,0.90
2022-10-16T14:12:13.456Z,0.90
2022-10-16T14:18:23.894Z,0.73
2022-10-16T14:24:33.109Z,1.10
2022-10-16T14:30:37.482Z,1.00
2022-10-16T14:36:42.499Z,0.83
2022-10-16T14:42:46.635Z,0.90
2022-10-16T14:48:52.220Z,0.90
2022-10-16T14:54:55.997Z,0.80
2022-10-16T15:00:58.115Z,1.10
2022-10-16T15:07:00.096Z,0.83
2022-10-16T15:13:02.055Z,1.00
2022-10-16T15:19:04.350Z,0.80
2022-10-16T15:25:08.785Z,1.10
2022-10-16T15:31:10.790Z,0.97
2022-10-16T15:37:16.127Z,0.80
2022-10-16T15:43:19.324Z,1.17
2022-10-16T15:49:21.226Z,1.47
2022-10-16T16:01:48.603Z,0.90
2022-10-16T16:14:00.101Z,0.97
2022-10-16T16:20:03.050Z,0.90
2022-10-16T16:26:16.444Z,0.80
2022-10-16T16:32:18.320Z,0.80
2022-10-16T16:38:20.252Z,0.90
2022-10-16T16:44:22.211Z,0.80
2022-10-16T16:50:24.121Z,0.93
2022-10-16T16:56:27.170Z,1.20
2022-10-16T17:02:29.101Z,0.80
2022-10-16T17:08:31.258Z,0.90
2022-10-16T17:14:33.252Z,1.20
2022-10-16T17:20:37.143Z,1.50
2022-10-16T17:26:41.396Z,1.03
2022-10-16T17:32:43.290Z,1.00
2022-10-16T17:38:46.100Z,0.90
2022-10-16T17:44:48.046Z,1.00
2022-10-16T17:50:49.971Z,0.80
2022-10-16T17:56:52.012Z,1.10
2022-10-16T18:02:53.934Z,1.30
2022-10-16T18:08:58.231Z,0.90
2022-10-16T18:15:00.576Z,0.97
2022-10-16T18:21:07.497Z,0.93
2022-10-16T18:27:23.294Z,1.00
2022-10-16T18:39:59.972Z,1.20
2022-10-16T18:46:05.954Z,1.20
2022-10-16T18:52:07.937Z,1.10
2022-10-16T18:58:10.081Z,1.50
2022-10-16T19:04:16.679Z,1.30
2022-10-16T19:10:19.884Z,1.87
2022-10-16T19:16:32.241Z,1.40
2022-10-16T19:22:54.269Z,1.70
2022-10-16T19:29:02.070Z,2.00
2022-10-16T19:35:04.353Z,2.17
2022-10-16T19:41:12.165Z,2.00
2022-10-16T19:47:14.684Z,1.40
2022-10-16T19:53:16.604Z,1.27
2022-10-16T19:59:20.280Z,1.50
2022-10-16T20:05:22.245Z,1.50
2022-10-16T20:11:28.512Z,1.20
2022-10-16T20:17:30.722Z,1.50
2022-10-16T20:23:33.646Z,1.57
2022-10-16T20:29:35.611Z,1.50
2022-10-16T20:35:44.683Z,1.30
2022-10-16T20:41:46.613Z,1.77
2022-10-16T20:47:48.548Z,1.60
2022-10-16T20:54:02.858Z,1.53
2022-10-16T21:00:06.411Z,1.33
2022-10-16T21:06:10.507Z,2.00
2022-10-16T21:12:12.654Z,1.67
2022-10-16T21:18:14.584Z,1.60
2022-10-16T21:24:17.892Z,2.03
2022-10-16T21:30:20.139Z,2.10
2022-10-16T21:36:31.560Z,1.70
2022-10-16T21:42:36.575Z,1.83
2022-10-16T21:48:39.474Z,1.60
2022-10-16T21:54:41.906Z,2.27
2022-10-16T22:00:43.878Z,1.60
2022-10-16T22:06:47.310Z,1.80
2022-10-16T22:13:02.180Z,2.07
2022-10-16T22:19:07.362Z,1.70
2022-10-16T22:25:09.672Z,1.70
2022-10-16T22:38:53.529Z,2.10
2022-10-16T22:45:14.817Z,2.33
2022-10-16T22:51:17.993Z,1.87
2022-10-16T22:57:19.978Z,2.27
2022-10-16T23:03:22.343Z,2.90
2022-10-16T23:09:24.326Z,2.30
2022-10-16T23:15:26.425Z,2.03
2022-10-16T23:21:28.486Z,2.00
2022-10-16T23:27:40.342Z,2.33
2022-10-16T23:33:51.165Z,2.03
2022-10-16T23:39:54.074Z,2.37
2022-10-16T23:45:56.107Z,2.17
2022-10-16T23:51:58.000Z,2.60
2022-10-16T23:57:59.893Z,3.03
